| time (UTC) | temp F | wind direction | speed MPH | gust MPH | rain 1hr in | rain 24hr in | rain mn in | humidity % | barometer mb |
| 20260507200001 | 71 | 245 | 15.0 | 25.0 | 0.00 | 0.00 | 0.00 | 33 | 1009.7 |
| 20260507194604 | 71 | 208 | 16.0 | 24.0 | 0.00 | 0.00 | 0.00 | 33 | 1009.9 |
| 20260507193058 | 70 | 185 | 15.0 | 24.0 | 0.00 | 0.00 | 0.00 | 35 | 1009.9 |
| 20260507191556 | 70 | 198 | 15.0 | 24.0 | 0.00 | 0.00 | 0.00 | 36 | 1010.2 |
| 20260507190054 | 69 | 235 | 15.0 | 23.0 | 0.00 | 0.00 | 0.00 | 34 | 1010.1 |
| 20260507184554 | 69 | 216 | 18.0 | 25.0 | 0.00 | 0.00 | 0.00 | 35 | 1010.3 |
| 20260507183050 | 68 | 189 | 15.0 | 23.0 | 0.00 | 0.00 | 0.00 | 37 | 1010.6 |
| 20260507181547 | 67 | 208 | 16.0 | 26.0 | 0.00 | 0.00 | 0.00 | 38 | 1010.9 |
| 20260507180048 | 66 | 193 | 18.0 | 25.0 | 0.00 | 0.00 | 0.00 | 38 | 1011.2 |
| 20260507174550 | 66 | 351 | 15.0 | 22.0 | 0.00 | 0.00 | 0.00 | 40 | 1011.5 |
| 20260507173045 | 65 | 173 | 17.0 | 27.0 | 0.00 | 0.00 | 0.00 | 41 | 1011.9 |
| 20260507171550 | 65 | 194 | 16.0 | 21.0 | 0.00 | 0.00 | 0.00 | 41 | 1012.1 |
| 20260507170035 | 65 | 217 | 12.0 | 21.0 | 0.00 | 0.00 | 0.00 | 41 | 1012.4 |
| 20260507164533 | 64 | 178 | 18.0 | 25.0 | 0.00 | 0.00 | 0.00 | 43 | 1012.4 |
| 20260507163030 | 63 | 222 | 14.0 | 24.0 | 0.00 | 0.00 | 0.00 | 43 | 1012.8 |
| 20260507161528 | 63 | 207 | 15.0 | 24.0 | 0.00 | 0.00 | 0.00 | 44 | 1012.9 |
| 20260507160026 | 62 | 233 | 12.0 | 24.0 | 0.00 | 0.00 | 0.00 | 45 | 1013.1 |
| 20260507154524 | 62 | 200 | 16.0 | 26.0 | 0.00 | 0.00 | 0.00 | 46 | 1013.2 |
| 20260507153022 | 61 | 221 | 17.0 | 24.0 | 0.00 | 0.00 | 0.00 | 47 | 1013.3 |
| 20260507151519 | 60 | 220 | 16.0 | 23.0 | 0.00 | 0.00 | 0.00 | 49 | 1013.5 |
| 20260507150016 | 60 | 233 | 14.0 | 20.0 | 0.00 | 0.00 | 0.00 | 52 | 1013.7 |
| 20260507144515 | 58 | 231 | 13.0 | 25.0 | 0.00 | 0.00 | 0.00 | 55 | 1014.2 |
| 20260507143010 | 57 | 218 | 14.0 | 19.0 | 0.00 | 0.00 | 0.00 | 56 | 1014.6 |
| 20260507141507 | 56 | 231 | 14.0 | 20.0 | 0.00 | 0.00 | 0.00 | 59 | 1014.7 |
| 20260507140006 | 55 | 351 | 10.0 | 17.0 | 0.00 | 0.00 | 0.00 | 62 | 1014.3 |
| 20260507134502 | 54 | 237 | 13.0 | 19.0 | 0.00 | 0.00 | 0.00 | 63 | 1014.3 |
| 20260507133059 | 53 | 351 | 9.0 | 16.0 | 0.00 | 0.00 | 0.00 | 68 | 1014.4 |
| 20260507131554 | 51 | 227 | 6.0 | 14.0 | 0.00 | 0.00 | 0.00 | 73 | 1014.4 |
| 20260507130055 | 50 | 204 | 6.0 | 11.0 | 0.00 | 0.00 | 0.00 | 76 | 1014.5 |
| 20260507124546 | 48 | 198 | 7.0 | 11.0 | 0.00 | 0.00 | 0.00 | 78 | 1014.5 |
| 20260507123049 | 47 | 196 | 7.0 | 12.0 | 0.00 | 0.00 | 0.00 | 79 | 1014.5 |
| 20260507121546 | 46 | 194 | 7.0 | 9.0 | 0.00 | 0.00 | 0.00 | 80 | 1014.4 |
| 20260507120046 | 45 | 183 | 6.0 | 10.0 | 0.00 | 0.00 | 0.00 | 80 | 1014.5 |
| 20260507114544 | 45 | 196 | 6.0 | 10.0 | 0.00 | 0.00 | 0.00 | 81 | 1014.5 |
| 20260507113042 | 45 | 216 | 7.0 | 9.0 | 0.00 | 0.00 | 0.00 | 81 | 1014.4 |
| 20260507111547 | 45 | 214 | 5.0 | 9.0 | 0.00 | 0.00 | 0.00 | 80 | 1014.4 |
| 20260507110039 | 45 | 212 | 5.0 | 9.0 | 0.00 | 0.00 | 0.00 | 80 | 1014.5 |
| 20260507104539 | 45 | 203 | 6.0 | 10.0 | 0.00 | 0.00 | 0.00 | 79 | 1014.5 |
| 20260507103041 | 46 | 196 | 7.0 | 11.0 | 0.00 | 0.00 | 0.00 | 78 | 1014.5 |
| 20260507101545 | 46 | 195 | 6.0 | 9.0 | 0.00 | 0.00 | 0.00 | 78 | 1014.6 |
| 20260507100041 | 45 | 197 | 6.0 | 8.0 | 0.00 | 0.00 | 0.00 | 78 | 1014.6 |
| 20260507094542 | 45 | 184 | 5.0 | 6.0 | 0.00 | 0.00 | 0.00 | 77 | 1014.7 |
| 20260507093035 | 45 | 184 | 4.0 | 6.0 | 0.00 | 0.00 | 0.00 | 76 | 1014.9 |
| 20260507091531 | 45 | 190 | 3.0 | 6.0 | 0.00 | 0.00 | 0.00 | 75 | 1014.9 |
| 20260507090034 | 45 | 198 | 6.0 | 8.0 | 0.00 | 0.00 | 0.00 | 75 | 1015.0 |
| 20260507084534 | 45 | 188 | 4.0 | 5.0 | 0.00 | 0.00 | 0.00 | 74 | 1015.2 |
| 20260507083024 | 45 | 190 | 2.0 | 4.0 | 0.00 | 0.00 | 0.00 | 73 | 1015.4 |
| 20260507081525 | 45 | 189 | 1.0 | 3.0 | 0.00 | 0.00 | 0.00 | 72 | 1015.5 |
| 20260507080020 | 45 | 189 | 2.0 | 4.0 | 0.00 | 0.00 | 0.00 | 71 | 1015.5 |
| 20260507074518 | 46 | 189 | 3.0 | 4.0 | 0.00 | 0.00 | 0.00 | 70 | 1015.6 |
| 20260507073016 | 46 | 187 | 2.0 | 4.0 | 0.00 | 0.00 | 0.00 | 69 | 1015.7 |
| 20260507071514 | 47 | 187 | 3.0 | 5.0 | 0.00 | 0.00 | 0.00 | 66 | 1015.8 |
| 20260507070018 | 48 | 204 | 3.0 | 8.0 | 0.00 | 0.00 | 0.00 | 64 | 1016.0 |
| 20260507064511 | 48 | 214 | 4.0 | 8.0 | 0.00 | 0.00 | 0.00 | 64 | 1016.3 |
| 20260507063010 | 47 | 208 | 3.0 | 7.0 | 0.00 | 0.00 | 0.00 | 64 | 1016.3 |
| 20260507061508 | 46 | 202 | 3.0 | 5.0 | 0.00 | 0.00 | 0.00 | 63 | 1016.3 |
| 20260507060006 | 46 | 192 | 3.0 | 5.0 | 0.00 | 0.00 | 0.00 | 62 | 1016.4 |
| 20260507054503 | 46 | 191 | 3.0 | 5.0 | 0.00 | 0.00 | 0.00 | 60 | 1016.5 |
| 20260507053110 | 47 | 175 | 4.0 | 8.0 | 0.00 | 0.00 | 0.00 | 58 | 1016.5 |
| 20260507051559 | 48 | 188 | 6.0 | 8.0 | 0.00 | 0.00 | 0.00 | 57 | 1016.5 |
| 20260507050056 | 48 | 175 | 4.0 | 7.0 | 0.00 | 0.00 | 0.00 | 56 | 1016.4 |
| 20260507044600 | 48 | 169 | 4.0 | 6.0 | 0.00 | 0.00 | 0.00 | 56 | 1016.4 |
| 20260507043058 | 49 | 178 | 4.0 | 6.0 | 0.00 | 0.00 | 0.00 | 55 | 1016.4 |
| 20260507041559 | 49 | 177 | 3.0 | 6.0 | 0.00 | 0.00 | 0.00 | 54 | 1016.5 |
| 20260507040054 | 49 | 182 | 2.0 | 4.0 | 0.00 | 0.00 | 0.00 | 53 | 1016.5 |
| 20260507034605 | 49 | 183 | 3.0 | 5.0 | 0.00 | 0.00 | 0.00 | 53 | 1016.6 |
| 20260507033055 | 49 | 248 | 2.0 | 4.0 | 0.00 | 0.00 | 0.00 | 51 | 1016.7 |
| 20260507031553 | 50 | 291 | 2.0 | 3.0 | 0.00 | 0.00 | 0.00 | 49 | 1016.7 |
| 20260507030100 | 50 | 291 | 2.0 | 3.0 | 0.00 | 0.00 | 0.00 | 47 | 1016.6 |
| 20260507024556 | 51 | 291 | 1.0 | 3.0 | 0.00 | 0.00 | 0.00 | 44 | 1016.6 |
| 20260507023053 | 52 | 291 | 3.0 | 4.0 | 0.00 | 0.00 | 0.00 | 43 | 1016.4 |
| 20260507021551 | 52 | 291 | 2.0 | 3.0 | 0.00 | 0.00 | 0.00 | 41 | 1016.3 |
| 20260507020052 | 53 | 291 | 1.0 | 2.0 | 0.00 | 0.00 | 0.00 | 39 | 1016.3 |
| 20260507014553 | 55 | 291 | 0.0 | 1.0 | 0.00 | 0.00 | 0.00 | 36 | 1016.1 |
| 20260507013058 | 56 | 291 | 0.0 | 2.0 | 0.00 | 0.00 | 0.00 | 35 | 1016.1 |
| 20260507011550 | 57 | 291 | 1.0 | 2.0 | 0.00 | 0.00 | 0.00 | 34 | 1016.0 |
| 20260507010049 | 58 | 291 | 2.0 | 5.0 | 0.00 | 0.00 | 0.00 | 33 | 1016.0 |
| 20260507004548 | 59 | 266 | 4.0 | 9.0 | 0.00 | 0.00 | 0.00 | 32 | 1016.1 |
| 20260507003047 | 59 | 283 | 3.0 | 10.0 | 0.00 | 0.00 | 0.00 | 32 | 1016.0 |
| 20260507001548 | 60 | 285 | 3.0 | 8.0 | 0.00 | 0.00 | 0.00 | 33 | 1016.0 |
| 20260507000052 | 60 | 273 | 4.0 | 8.0 | 0.00 | 0.00 | 0.00 | 31 | 1016.1 |
| 20260506234553 | 60 | 254 | 4.0 | 11.0 | 0.00 | 0.00 | 0.00 | 31 | 1016.2 |
| 20260506233046 | 60 | 284 | 6.0 | 10.0 | 0.00 | 0.00 | 0.00 | 32 | 1016.3 |
| 20260506231546 | 60 | 292 | 8.0 | 17.0 | 0.00 | 0.00 | 0.00 | 31 | 1016.3 |
| 20260506230044 | 61 | 286 | 6.0 | 14.0 | 0.00 | 0.00 | 0.00 | 32 | 1016.4 |
| 20260506224558 | 61 | 273 | 7.0 | 13.0 | 0.00 | 0.00 | 0.00 | 30 | 1016.5 |
| 20260506223042 | 60 | 277 | 7.0 | 12.0 | 0.00 | 0.00 | 0.00 | 32 | 1016.5 |
| 20260506221542 | 60 | 351 | 9.0 | 14.0 | 0.00 | 0.00 | 0.00 | 31 | 1016.5 |
| 20260506220040 | 60 | 230 | 8.0 | 14.0 | 0.00 | 0.00 | 0.00 | 31 | 1016.8 |
| 20260506214549 | 60 | 351 | 6.0 | 14.0 | 0.00 | 0.00 | 0.00 | 32 | 1016.9 |
| 20260506213042 | 60 | 312 | 8.0 | 13.0 | 0.00 | 0.00 | 0.00 | 32 | 1017.1 |
| 20260506211535 | 59 | 278 | 5.0 | 12.0 | 0.00 | 0.00 | 0.00 | 37 | 1017.3 |
| 20260506210037 | 59 | 243 | 5.0 | 16.0 | 0.00 | 0.00 | 0.00 | 32 | 1017.6 |
| 20260506204532 | 59 | 313 | 4.0 | 14.0 | 0.00 | 0.00 | 0.00 | 35 | 1017.9 |
| 20260506203033 | 58 | 291 | 6.0 | 14.0 | 0.00 | 0.00 | 0.00 | 35 | 1018.2 |
| 20260506201531 | 57 | 266 | 7.0 | 13.0 | 0.00 | 0.00 | 0.00 | 35 | 1018.4 |